Terminal Aerodrome Forecast
Issued by NWS

Home | Current Version | Previous Version | Text Only | Print | Product List | Glossary On
Versions: 1 2 3 4 5 6 7 8 9 10 11 12
060
FTUS45 KVEF 231726
TAFEED
TAF
KEED 231726Z 2318/2418 02010KT P6SM SKC
     FM240300 26007KT P6SM SKC
     FM241500 16005KT P6SM SKC=

USA.gov is the U.S. government's official web portal to all federal, state and local government web resources and services.